createdAt,value
2023-05-06T00:00:57.815Z,16.21
2023-05-06T00:03:01.474Z,16.22
2023-05-06T00:05:04.774Z,16.29
2023-05-06T00:07:07.408Z,16.25
2023-05-06T00:09:10.571Z,16.25
2023-05-06T00:11:13.721Z,16.26
2023-05-06T00:13:17.738Z,16.30
2023-05-06T00:15:20.510Z,16.31
2023-05-06T00:17:23.111Z,16.33
2023-05-06T00:19:25.736Z,16.32
2023-05-06T00:21:28.660Z,16.31
2023-05-06T00:23:31.236Z,16.30
2023-05-06T00:25:33.848Z,16.30
2023-05-06T00:27:36.428Z,16.30
2023-05-06T00:29:40.315Z,16.31
2023-05-06T00:31:42.923Z,16.32
2023-05-06T00:33:45.527Z,16.31
2023-05-06T00:35:48.246Z,16.32
2023-05-06T00:37:58.325Z,16.32
2023-05-06T00:40:01.018Z,16.32
2023-05-06T00:42:03.905Z,16.31
2023-05-06T00:44:06.781Z,16.30
2023-05-06T00:46:11.917Z,16.32
2023-05-06T00:48:15.917Z,16.30
2023-05-06T00:50:19.483Z,16.29
2023-05-06T00:52:22.137Z,16.28
2023-05-06T00:54:25.719Z,16.26
2023-05-06T00:56:28.464Z,16.26
2023-05-06T00:58:31.185Z,16.27
2023-05-06T01:00:34.729Z,16.25
2023-05-06T01:02:47.189Z,16.24
2023-05-06T01:04:51.685Z,16.25
2023-05-06T01:07:04.619Z,16.25
2023-05-06T01:09:15.698Z,16.26
2023-05-06T01:11:25.348Z,16.25
2023-05-06T01:13:35.456Z,16.23
2023-05-06T01:15:41.539Z,16.25
2023-05-06T01:17:47.165Z,16.26
2023-05-06T01:19:53.317Z,16.25
2023-05-06T01:21:58.123Z,16.25
2023-05-06T01:24:02.184Z,16.22
2023-05-06T01:26:04.783Z,16.22
2023-05-06T01:28:10.297Z,16.20
2023-05-06T01:30:14.691Z,16.19
2023-05-06T01:32:37.246Z,16.14
2023-05-06T01:34:46.743Z,16.10
2023-05-06T01:36:57.631Z,16.09
2023-05-06T01:39:10.092Z,16.06
2023-05-06T01:41:16.967Z,16.04
2023-05-06T01:43:20.367Z,16.01
2023-05-06T01:45:26.601Z,16.01
2023-05-06T01:47:29.242Z,16.01
2023-05-06T01:49:32.184Z,15.97
2023-05-06T01:51:34.930Z,15.94
2023-05-06T01:53:37.523Z,15.94
2023-05-06T01:55:41.452Z,15.94
2023-05-06T01:57:44.030Z,15.79
2023-05-06T01:59:48.565Z,15.70
2023-05-06T02:01:51.184Z,15.65
2023-05-06T02:03:53.838Z,15.62
2023-05-06T02:05:56.593Z,15.62
2023-05-06T02:07:59.173Z,15.57
2023-05-06T02:10:01.727Z,15.51
2023-05-06T02:12:06.230Z,15.48
2023-05-06T02:14:08.863Z,15.46
2023-05-06T02:16:11.562Z,15.45
2023-05-06T02:18:14.198Z,15.44
2023-05-06T02:20:16.818Z,15.46
2023-05-06T02:22:19.393Z,15.45
2023-05-06T02:24:21.942Z,15.46
2023-05-06T02:26:24.558Z,15.48
2023-05-06T02:28:28.472Z,15.49
2023-05-06T02:30:34.583Z,15.47
2023-05-06T02:32:37.353Z,15.42
2023-05-06T02:34:40.048Z,15.39
2023-05-06T02:36:42.653Z,15.37
2023-05-06T02:38:45.194Z,15.36
2023-05-06T02:40:47.808Z,15.43
2023-05-06T02:42:50.684Z,15.37
2023-05-06T02:44:54.667Z,15.30
2023-05-06T02:46:57.614Z,15.26
2023-05-06T02:49:00.348Z,15.26
2023-05-06T02:51:03.134Z,15.24
2023-05-06T02:53:05.740Z,15.25
2023-05-06T02:55:09.045Z,15.22
2023-05-06T02:57:11.827Z,15.22
2023-05-06T02:59:14.644Z,15.22
2023-05-06T03:01:18.548Z,15.20
2023-05-06T03:03:22.973Z,15.21
2023-05-06T03:05:25.556Z,15.20
2023-05-06T03:07:28.134Z,15.19
2023-05-06T03:09:30.662Z,15.18
2023-05-06T03:11:33.527Z,15.14
2023-05-06T03:13:36.182Z,15.14
2023-05-06T03:15:38.770Z,15.12
2023-05-06T03:17:42.726Z,15.11
2023-05-06T03:19:45.583Z,15.09
2023-05-06T03:21:48.200Z,15.07
2023-05-06T03:23:50.848Z,15.05
2023-05-06T03:25:53.383Z,15.01
2023-05-06T03:27:55.944Z,15.05
2023-05-06T03:29:58.487Z,15.03
2023-05-06T03:32:03.905Z,15.02
2023-05-06T03:34:07.831Z,15.01
2023-05-06T03:36:10.528Z,14.96
2023-05-06T03:38:13.129Z,14.91
2023-05-06T03:40:15.922Z,14.87
2023-05-06T03:42:18.552Z,14.85
2023-05-06T03:44:21.158Z,14.85
2023-05-06T03:46:23.748Z,14.81
2023-05-06T03:48:26.394Z,14.76
2023-05-06T03:50:30.366Z,14.73
2023-05-06T03:52:33.042Z,14.69
2023-05-06T03:54:35.620Z,14.69
2023-05-06T03:56:38.190Z,14.65
2023-05-06T03:58:40.838Z,14.64
2023-05-06T04:00:43.441Z,14.63
2023-05-06T04:02:46.097Z,14.62
2023-05-06T04:04:48.670Z,14.60
2023-05-06T04:06:52.591Z,14.60
2023-05-06T04:08:55.166Z,14.61
2023-05-06T04:10:58.761Z,14.61
2023-05-06T04:13:02.059Z,14.61
2023-05-06T04:15:05.234Z,14.64
2023-05-06T04:17:07.816Z,14.62
2023-05-06T04:19:10.383Z,14.64
2023-05-06T04:21:13.006Z,14.67
2023-05-06T04:23:17.253Z,14.68
2023-05-06T04:25:21.206Z,14.60
2023-05-06T04:27:26.539Z,14.55
2023-05-06T04:29:29.085Z,14.53
2023-05-06T04:31:32.891Z,14.52
2023-05-06T04:33:35.710Z,14.53
2023-05-06T04:35:38.454Z,14.45
2023-05-06T04:37:41.354Z,14.43
2023-05-06T04:39:47.390Z,14.38
2023-05-06T04:41:50.012Z,14.44
2023-05-06T04:43:52.589Z,14.42
2023-05-06T04:45:55.316Z,14.39
2023-05-06T04:47:57.966Z,14.33
2023-05-06T04:50:00.930Z,14.31
2023-05-06T04:52:03.511Z,14.34
2023-05-06T04:54:06.212Z,14.30
2023-05-06T04:56:10.231Z,14.27
2023-05-06T04:58:15.380Z,14.24
2023-05-06T05:00:19.099Z,14.27
2023-05-06T05:02:21.741Z,14.25
2023-05-06T05:04:24.473Z,14.29
2023-05-06T05:06:27.031Z,14.30
2023-05-06T05:08:29.709Z,14.33
2023-05-06T05:10:32.416Z,14.34
2023-05-06T05:12:36.499Z,14.40
2023-05-06T05:14:39.051Z,14.45
2023-05-06T05:16:41.808Z,14.49
2023-05-06T05:18:44.457Z,14.48
2023-05-06T05:20:50.018Z,14.57
2023-05-06T05:22:52.625Z,14.58
2023-05-06T05:24:55.173Z,14.59
2023-05-06T05:26:57.753Z,14.58
2023-05-06T05:29:01.805Z,14.59
2023-05-06T05:31:05.046Z,14.59
2023-05-06T05:33:07.969Z,14.62
2023-05-06T05:35:11.310Z,14.64
2023-05-06T05:37:14.094Z,14.68
2023-05-06T05:39:16.639Z,14.72
2023-05-06T05:41:19.179Z,14.86
2023-05-06T05:43:22.763Z,14.80
2023-05-06T05:45:26.755Z,14.99
2023-05-06T05:47:29.332Z,14.88
2023-05-06T05:49:31.884Z,14.78
2023-05-06T05:51:35.832Z,14.77
2023-05-06T05:53:38.391Z,14.77
2023-05-06T05:55:40.967Z,14.72
2023-05-06T05:57:43.531Z,14.72
2023-05-06T05:59:46.215Z,14.70
2023-05-06T06:01:50.106Z,14.72
2023-05-06T06:03:54.280Z,14.73
2023-05-06T06:05:57.071Z,14.73
2023-05-06T06:08:02.215Z,14.74
2023-05-06T06:10:07.468Z,14.75
2023-05-06T06:12:10.057Z,14.74
2023-05-06T06:14:12.619Z,14.75
2023-05-06T06:16:15.214Z,14.78
2023-05-06T06:18:19.172Z,14.76
2023-05-06T06:20:24.646Z,14.78
2023-05-06T06:22:27.319Z,14.84
2023-05-06T06:24:32.571Z,14.83
2023-05-06T06:26:35.217Z,14.84
2023-05-06T06:28:37.893Z,14.86
2023-05-06T06:30:40.476Z,14.92
2023-05-06T06:32:49.341Z,14.98
2023-05-06T06:34:53.295Z,14.91
2023-05-06T06:36:55.823Z,14.91
2023-05-06T06:38:58.380Z,14.94
2023-05-06T06:41:00.972Z,14.95
2023-05-06T06:43:03.568Z,15.05
2023-05-06T06:45:08.189Z,14.96
2023-05-06T06:47:10.887Z,15.15
2023-05-06T06:49:13.491Z,15.02
2023-05-06T06:51:17.402Z,15.21
2023-05-06T06:53:20.000Z,15.04
2023-05-06T06:55:22.872Z,15.01
2023-05-06T06:57:25.525Z,15.10
2023-05-06T06:59:28.100Z,15.09
2023-05-06T07:01:30.727Z,15.12
2023-05-06T07:03:33.358Z,15.06
2023-05-06T07:05:35.982Z,15.06
2023-05-06T07:07:39.895Z,15.09
2023-05-06T07:09:44.438Z,15.09
2023-05-06T07:11:47.299Z,15.13
2023-05-06T07:13:49.854Z,15.17
2023-05-06T07:15:52.428Z,15.21
2023-05-06T07:17:55.033Z,15.27
2023-05-06T07:19:57.611Z,15.26
2023-05-06T07:22:00.233Z,15.33
2023-05-06T07:24:04.342Z,15.36
2023-05-06T07:26:06.905Z,15.45
2023-05-06T07:28:09.502Z,15.39
2023-05-06T07:30:12.644Z,15.39
2023-05-06T07:32:15.302Z,15.51
2023-05-06T07:34:17.854Z,15.48
2023-05-06T07:36:20.479Z,15.43
2023-05-06T07:38:23.095Z,15.42
2023-05-06T07:40:27.034Z,15.45
2023-05-06T07:42:29.608Z,15.41
2023-05-06T07:44:32.187Z,15.43
2023-05-06T07:46:34.972Z,15.42
2023-05-06T07:48:37.632Z,15.44
2023-05-06T07:50:40.381Z,15.46
2023-05-06T07:52:42.974Z,15.48
2023-05-06T07:54:45.519Z,15.49
2023-05-06T07:56:49.411Z,15.53
2023-05-06T07:58:52.039Z,15.57
2023-05-06T08:00:54.858Z,15.59
2023-05-06T08:02:57.586Z,15.60
2023-05-06T08:05:00.231Z,15.61
2023-05-06T08:07:02.831Z,15.64
2023-05-06T08:09:05.417Z,15.67
2023-05-06T08:11:07.985Z,15.73
2023-05-06T08:13:12.011Z,15.81
2023-05-06T08:15:14.936Z,15.81
2023-05-06T08:17:17.615Z,15.85
2023-05-06T08:19:20.298Z,15.88
2023-05-06T08:21:22.881Z,15.99
2023-05-06T08:23:25.546Z,16.04
2023-05-06T08:25:28.110Z,16.07
2023-05-06T08:27:30.759Z,16.08
2023-05-06T08:29:34.658Z,16.11
2023-05-06T08:31:37.306Z,16.16
2023-05-06T08:33:39.885Z,16.19
2023-05-06T08:35:42.435Z,16.19
2023-05-06T08:37:45.062Z,16.22
2023-05-06T08:39:47.653Z,16.22
2023-05-06T08:41:53.334Z,16.20
2023-05-06T08:43:58.095Z,16.28
2023-05-06T08:46:02.148Z,16.29
2023-05-06T08:48:05.099Z,16.38
2023-05-06T08:50:08.826Z,16.42
2023-05-06T08:52:12.568Z,16.39
2023-05-06T08:54:16.018Z,16.38
2023-05-06T08:56:20.008Z,16.38
2023-05-06T08:58:26.083Z,16.39
2023-05-06T09:00:28.667Z,16.49
2023-05-06T09:02:32.665Z,16.48
2023-05-06T09:04:36.243Z,16.55
2023-05-06T09:06:39.667Z,16.47
2023-05-06T09:08:42.232Z,16.47
2023-05-06T09:10:46.118Z,16.54
2023-05-06T09:12:48.739Z,16.63
2023-05-06T09:14:51.944Z,16.61
2023-05-06T09:16:54.584Z,16.68
2023-05-06T09:18:59.738Z,16.67
2023-05-06T09:21:05.548Z,16.70
2023-05-06T09:23:09.393Z,16.75
2023-05-06T09:25:12.514Z,16.77
2023-05-06T09:27:15.603Z,16.80
2023-05-06T09:29:18.242Z,16.89
2023-05-06T09:31:20.839Z,17.09
2023-05-06T09:33:23.529Z,17.07
2023-05-06T09:35:29.380Z,17.14
2023-05-06T09:37:32.217Z,17.18
2023-05-06T09:39:34.774Z,17.18
2023-05-06T09:41:37.328Z,17.18
2023-05-06T09:43:42.067Z,17.36
2023-05-06T09:45:46.263Z,17.30
2023-05-06T09:47:50.025Z,17.25
2023-05-06T09:49:52.826Z,17.26
2023-05-06T09:51:57.610Z,17.38
2023-05-06T09:54:01.605Z,17.25
2023-05-06T09:56:05.300Z,17.22
2023-05-06T09:58:09.150Z,17.28
2023-05-06T10:00:13.163Z,17.36
2023-05-06T10:02:16.349Z,17.51
2023-05-06T10:04:20.102Z,17.62
2023-05-06T10:06:24.187Z,17.63
2023-05-06T10:08:28.384Z,17.46
2023-05-06T10:10:31.258Z,17.46
2023-05-06T10:12:33.912Z,17.49
2023-05-06T10:14:38.158Z,17.52
2023-05-06T10:16:42.538Z,17.46
2023-05-06T10:18:47.283Z,17.50
2023-05-06T10:20:53.513Z,17.46
2023-05-06T10:23:04.528Z,17.45
2023-05-06T10:25:16.815Z,17.59
2023-05-06T10:27:24.422Z,17.56
2023-05-06T10:29:27.191Z,17.76
2023-05-06T10:31:31.541Z,17.72
2023-05-06T10:33:34.695Z,17.77
2023-05-06T10:35:45.843Z,17.79
2023-05-06T10:37:50.148Z,17.86
2023-05-06T10:39:54.806Z,17.92
2023-05-06T10:41:59.023Z,17.89
2023-05-06T10:44:01.908Z,17.81
2023-05-06T10:46:07.023Z,17.80
2023-05-06T10:48:10.613Z,17.78
2023-05-06T10:50:21.034Z,17.84
2023-05-06T10:52:23.612Z,17.78
2023-05-06T10:54:26.199Z,17.77
2023-05-06T10:56:29.795Z,17.78
2023-05-06T10:58:37.398Z,17.81
2023-05-06T11:00:39.981Z,17.86
2023-05-06T11:02:43.493Z,17.89
2023-05-06T11:04:52.524Z,18.02
2023-05-06T11:06:55.239Z,18.10
2023-05-06T11:08:58.236Z,18.19
2023-05-06T11:11:00.852Z,18.20
2023-05-06T11:13:23.660Z,18.13
2023-05-06T11:15:38.534Z,18.19
2023-05-06T11:17:41.229Z,18.17
2023-05-06T11:19:43.877Z,18.14
2023-05-06T11:21:47.016Z,18.41
2023-05-06T11:24:10.566Z,18.24
2023-05-06T11:26:14.244Z,18.24
2023-05-06T11:28:17.146Z,18.47
2023-05-06T11:30:19.783Z,18.35
2023-05-06T11:32:26.058Z,18.32
2023-05-06T11:34:29.959Z,18.36
2023-05-06T11:36:33.515Z,18.50
2023-05-06T11:38:43.475Z,18.66
2023-05-06T11:40:46.139Z,18.68
2023-05-06T11:42:48.749Z,18.60
2023-05-06T11:44:51.655Z,18.60
2023-05-06T11:46:58.040Z,18.61
2023-05-06T11:49:02.324Z,18.66
2023-05-06T11:51:05.058Z,18.74
2023-05-06T11:53:07.660Z,18.71
2023-05-06T11:55:10.944Z,18.74
2023-05-06T11:57:14.546Z,18.91
2023-05-06T11:59:18.484Z,18.82
2023-05-06T12:01:21.044Z,18.86
2023-05-06T12:03:25.602Z,19.07
2023-05-06T12:05:29.677Z,19.11
2023-05-06T12:07:32.333Z,19.04
2023-05-06T12:09:35.980Z,19.09
2023-05-06T12:11:39.798Z,19.20
2023-05-06T12:13:42.549Z,19.24
2023-05-06T12:15:45.925Z,19.29
2023-05-06T12:17:48.927Z,19.36
2023-05-06T12:19:51.757Z,19.33
2023-05-06T12:21:55.712Z,19.37
2023-05-06T12:24:00.390Z,19.65
2023-05-06T12:26:04.402Z,19.65
2023-05-06T12:28:15.440Z,19.72
2023-05-06T12:30:30.036Z,19.79
2023-05-06T12:32:32.821Z,19.78
2023-05-06T12:34:39.093Z,19.83
2023-05-06T12:36:43.287Z,20.05
2023-05-06T12:38:54.119Z,20.01
2023-05-06T12:40:56.910Z,20.07
2023-05-06T12:42:59.640Z,20.12
2023-05-06T12:45:14.549Z,20.15
2023-05-06T12:47:22.241Z,20.19
2023-05-06T12:49:24.825Z,20.38
2023-05-06T12:51:27.693Z,20.45
2023-05-06T12:53:34.497Z,20.67
2023-05-06T12:55:39.640Z,20.76
2023-05-06T12:57:42.271Z,20.88
2023-05-06T12:59:46.111Z,21.13
2023-05-06T13:01:48.682Z,21.18
2023-05-06T13:03:52.383Z,21.29
2023-05-06T13:05:54.955Z,21.49
2023-05-06T13:07:57.514Z,21.84
2023-05-06T13:10:00.145Z,22.03
2023-05-06T13:12:04.622Z,22.06
2023-05-06T13:14:07.684Z,22.20
2023-05-06T13:16:10.781Z,22.52
2023-05-06T13:18:13.376Z,22.63
2023-05-06T13:20:16.383Z,22.90
2023-05-06T13:22:18.974Z,23.05
2023-05-06T13:24:21.874Z,23.23
2023-05-06T13:26:24.921Z,23.43
2023-05-06T13:28:28.834Z,23.63
2023-05-06T13:30:32.394Z,23.83
2023-05-06T13:32:35.303Z,24.04
2023-05-06T13:34:37.901Z,24.22
2023-05-06T13:36:40.498Z,24.39
2023-05-06T13:38:43.057Z,24.50
2023-05-06T13:40:47.609Z,24.63
2023-05-06T13:42:50.233Z,24.83
2023-05-06T13:44:54.146Z,25.05
2023-05-06T13:46:56.732Z,25.10
2023-05-06T13:48:59.364Z,25.22
2023-05-06T13:51:02.011Z,25.39
2023-05-06T13:53:05.404Z,25.49
2023-05-06T13:55:09.799Z,25.62
2023-05-06T13:57:12.509Z,25.76
2023-05-06T13:59:15.063Z,25.93
2023-05-06T14:01:19.465Z,26.10
2023-05-06T14:03:22.394Z,26.11
2023-05-06T14:05:25.100Z,26.13
2023-05-06T14:07:27.748Z,26.09
2023-05-06T14:09:30.322Z,26.20
2023-05-06T14:11:32.929Z,26.04
2023-05-06T14:13:35.499Z,26.13
2023-05-06T14:15:38.128Z,25.97
2023-05-06T14:17:42.449Z,25.93
2023-05-06T14:19:45.862Z,25.96
2023-05-06T14:21:48.454Z,26.12
2023-05-06T14:23:51.059Z,26.22
2023-05-06T14:25:53.606Z,26.05
2023-05-06T14:27:56.407Z,25.99
2023-05-06T14:29:59.054Z,25.86
2023-05-06T14:32:01.791Z,25.77
2023-05-06T14:34:05.765Z,25.79
2023-05-06T14:36:08.746Z,25.83
2023-05-06T14:38:11.665Z,26.14
2023-05-06T14:40:15.856Z,26.05
2023-05-06T14:42:18.420Z,25.90
2023-05-06T14:44:21.095Z,25.82
2023-05-06T14:46:23.779Z,25.68
2023-05-06T14:48:26.384Z,25.58
2023-05-06T14:50:30.725Z,25.54
2023-05-06T14:52:33.278Z,25.54
2023-05-06T14:54:41.896Z,25.38
2023-05-06T14:56:46.394Z,25.35
2023-05-06T14:58:48.967Z,25.34
2023-05-06T15:00:51.575Z,25.31
2023-05-06T15:02:54.232Z,25.39
2023-05-06T15:04:57.061Z,25.31
2023-05-06T15:07:01.724Z,25.33
2023-05-06T15:09:05.023Z,25.32
2023-05-06T15:11:07.974Z,25.40
2023-05-06T15:13:10.911Z,25.47
2023-05-06T15:15:13.730Z,25.48
2023-05-06T15:17:16.687Z,25.47
2023-05-06T15:19:19.241Z,25.50
2023-05-06T15:21:21.866Z,25.54
2023-05-06T15:23:25.860Z,25.59
2023-05-06T15:25:35.752Z,25.61
2023-05-06T15:27:38.954Z,25.57
2023-05-06T15:29:41.571Z,25.52
2023-05-06T15:31:45.614Z,25.50
2023-05-06T15:33:48.190Z,25.41
2023-05-06T15:35:50.763Z,25.45
2023-05-06T15:37:58.448Z,25.38
2023-05-06T15:40:02.516Z,25.32
2023-05-06T15:42:06.110Z,25.23
2023-05-06T15:44:10.488Z,25.09
2023-05-06T15:46:13.151Z,24.95
2023-05-06T15:48:15.951Z,24.86
2023-05-06T15:50:32.925Z,24.94
2023-05-06T15:52:36.624Z,24.89
2023-05-06T15:54:40.002Z,24.87
2023-05-06T15:56:45.228Z,24.84
2023-05-06T15:58:47.841Z,24.77
2023-05-06T16:00:50.408Z,24.69
2023-05-06T16:02:55.190Z,24.66
2023-05-06T16:04:58.116Z,24.56
2023-05-06T16:07:00.788Z,24.50
2023-05-06T16:09:03.459Z,24.49
2023-05-06T16:11:06.071Z,24.41
2023-05-06T16:13:09.980Z,24.32
2023-05-06T16:15:12.744Z,24.22
2023-05-06T16:17:16.481Z,24.32
2023-05-06T16:19:19.034Z,24.19
2023-05-06T16:21:21.610Z,24.14
2023-05-06T16:23:24.170Z,24.19
2023-05-06T16:25:27.004Z,24.09
2023-05-06T16:27:29.622Z,24.15
2023-05-06T16:29:33.571Z,23.98
2023-05-06T16:31:36.176Z,23.97
2023-05-06T16:33:38.976Z,23.83
2023-05-06T16:35:41.817Z,23.67
2023-05-06T16:37:44.592Z,23.54
2023-05-06T16:39:47.268Z,23.45
2023-05-06T16:41:49.865Z,23.45
2023-05-06T16:43:52.407Z,23.38
2023-05-06T16:45:56.334Z,23.29
2023-05-06T16:47:59.026Z,23.24
2023-05-06T16:50:01.650Z,23.18
2023-05-06T16:52:04.466Z,23.14
2023-05-06T16:54:07.032Z,23.09
2023-05-06T16:56:10.764Z,23.07
2023-05-06T16:58:13.344Z,23.05
2023-05-06T17:00:16.807Z,23.03
2023-05-06T17:02:21.447Z,22.95
2023-05-06T17:04:25.527Z,22.91
2023-05-06T17:06:31.222Z,22.86
2023-05-06T17:08:36.309Z,22.81
2023-05-06T17:10:39.367Z,22.73
2023-05-06T17:12:42.850Z,22.66
2023-05-06T17:14:45.550Z,22.57
2023-05-06T17:16:48.212Z,22.50
2023-05-06T17:18:52.142Z,22.43
2023-05-06T17:20:57.030Z,22.41
2023-05-06T17:22:59.937Z,22.33
2023-05-06T17:25:02.658Z,22.29
2023-05-06T17:27:05.691Z,22.23
2023-05-06T17:29:08.308Z,22.18
2023-05-06T17:31:10.928Z,22.16
2023-05-06T17:33:13.712Z,22.09
2023-05-06T17:35:17.858Z,22.06
2023-05-06T17:37:20.418Z,21.98
2023-05-06T17:39:22.991Z,21.94
2023-05-06T17:41:25.887Z,21.87
2023-05-06T17:43:28.536Z,21.84
2023-05-06T17:45:31.223Z,21.78
2023-05-06T17:47:34.256Z,21.72
2023-05-06T17:49:36.920Z,21.68
2023-05-06T17:51:40.858Z,21.62
2023-05-06T17:53:43.432Z,21.58
2023-05-06T17:55:45.977Z,21.55
2023-05-06T17:57:48.657Z,21.53
2023-05-06T17:59:51.253Z,21.47
2023-05-06T18:01:53.872Z,21.42
2023-05-06T18:03:56.666Z,21.37
2023-05-06T18:05:59.904Z,21.32
2023-05-06T18:08:04.768Z,21.25
2023-05-06T18:10:08.596Z,21.20
2023-05-06T18:12:11.165Z,21.17
2023-05-06T18:14:13.848Z,21.10
2023-05-06T18:16:16.442Z,21.06
2023-05-06T18:18:19.001Z,21.01
2023-05-06T18:20:21.552Z,20.97
2023-05-06T18:22:24.105Z,20.90
2023-05-06T18:24:28.106Z,20.86
2023-05-06T18:26:44.095Z,20.82
2023-05-06T18:28:47.704Z,20.79
2023-05-06T18:30:50.248Z,20.82
2023-05-06T18:32:54.555Z,20.76
2023-05-06T18:34:59.022Z,20.74
2023-05-06T18:37:01.578Z,20.77
2023-05-06T18:39:04.553Z,20.65
2023-05-06T18:41:09.011Z,20.63
2023-05-06T18:43:11.594Z,20.56
2023-05-06T18:45:14.302Z,20.53
2023-05-06T18:47:17.132Z,20.50
2023-05-06T18:49:19.662Z,20.46
2023-05-06T18:51:22.279Z,20.42
2023-05-06T18:53:24.909Z,20.40
2023-05-06T18:55:27.791Z,20.45
2023-05-06T18:57:31.780Z,20.45
2023-05-06T18:59:34.596Z,20.49
2023-05-06T19:01:37.243Z,20.30
2023-05-06T19:03:40.124Z,20.23
2023-05-06T19:05:42.743Z,20.11
2023-05-06T19:07:45.299Z,20.07
2023-05-06T19:09:47.849Z,20.04
2023-05-06T19:11:51.516Z,20.02
2023-05-06T19:13:55.432Z,20.03
2023-05-06T19:15:58.087Z,20.02
2023-05-06T19:18:00.680Z,20.01
2023-05-06T19:20:04.170Z,20.00
2023-05-06T19:22:06.757Z,19.99
2023-05-06T19:24:09.374Z,19.97
2023-05-06T19:26:13.161Z,19.93
2023-05-06T19:28:15.710Z,19.88
2023-05-06T19:30:19.897Z,19.89
2023-05-06T19:32:22.500Z,19.85
2023-05-06T19:34:25.458Z,19.82
2023-05-06T19:36:28.234Z,19.79
2023-05-06T19:38:30.948Z,19.77
2023-05-06T19:40:34.792Z,19.77
2023-05-06T19:42:37.365Z,19.82
2023-05-06T19:44:39.951Z,19.74
2023-05-06T19:46:43.868Z,19.56
2023-05-06T19:48:46.907Z,19.46
2023-05-06T19:50:49.460Z,19.41
2023-05-06T19:52:52.043Z,19.39
2023-05-06T19:54:54.585Z,19.36
2023-05-06T19:56:57.288Z,19.36
2023-05-06T19:58:59.876Z,19.43
2023-05-06T20:01:02.509Z,19.48
2023-05-06T20:03:06.518Z,19.31
2023-05-06T20:05:10.020Z,19.26
2023-05-06T20:07:13.522Z,19.37
2023-05-06T20:09:16.134Z,19.20
2023-05-06T20:11:18.708Z,19.07
2023-05-06T20:13:21.409Z,18.90
2023-05-06T20:15:24.063Z,18.81
2023-05-06T20:17:27.112Z,18.78
2023-05-06T20:19:31.304Z,18.75
2023-05-06T20:21:33.908Z,18.72
2023-05-06T20:23:36.462Z,18.71
2023-05-06T20:25:38.996Z,18.72
2023-05-06T20:27:41.554Z,18.88
2023-05-06T20:29:44.128Z,18.73
2023-05-06T20:31:47.097Z,18.60
2023-05-06T20:33:49.762Z,18.55
2023-05-06T20:35:53.667Z,18.50
2023-05-06T20:37:56.445Z,18.47
2023-05-06T20:40:02.439Z,18.47
2023-05-06T20:42:05.205Z,18.46
2023-05-06T20:44:07.759Z,18.42
2023-05-06T20:46:10.336Z,18.39
2023-05-06T20:48:14.865Z,18.38
2023-05-06T20:50:18.665Z,18.36
2023-05-06T20:52:22.664Z,18.44
2023-05-06T20:54:25.356Z,18.36
2023-05-06T20:56:28.641Z,18.24
2023-05-06T20:58:31.188Z,18.15
2023-05-06T21:00:33.763Z,18.13
2023-05-06T21:02:41.026Z,18.09
2023-05-06T21:04:44.382Z,18.09
2023-05-06T21:06:46.944Z,18.10
2023-05-06T21:08:51.801Z,18.21
2023-05-06T21:10:54.456Z,18.13
2023-05-06T21:12:57.037Z,18.00
2023-05-06T21:14:59.671Z,17.94
2023-05-06T21:17:02.339Z,17.91
2023-05-06T21:19:04.981Z,17.89
2023-05-06T21:21:07.550Z,17.86
2023-05-06T21:23:10.172Z,17.87
2023-05-06T21:25:14.277Z,17.81
2023-05-06T21:27:16.993Z,17.72
2023-05-06T21:29:20.581Z,17.79
2023-05-06T21:31:25.141Z,17.93
2023-05-06T21:33:27.776Z,17.69
2023-05-06T21:35:31.076Z,17.66
2023-05-06T21:37:35.582Z,17.57
2023-05-06T21:39:38.173Z,17.58
2023-05-06T21:41:42.116Z,17.55
2023-05-06T21:43:44.687Z,17.53
2023-05-06T21:45:47.227Z,17.64
2023-05-06T21:47:50.429Z,17.56
2023-05-06T21:49:53.033Z,17.59
2023-05-06T21:51:56.225Z,17.55
2023-05-06T21:53:59.190Z,17.55
2023-05-06T21:56:01.753Z,17.56
2023-05-06T21:58:05.982Z,17.52
2023-05-06T22:00:12.106Z,17.53
2023-05-06T22:02:15.981Z,17.54
2023-05-06T22:04:20.040Z,17.53
2023-05-06T22:06:23.239Z,17.51
2023-05-06T22:08:25.997Z,17.48
2023-05-06T22:10:28.664Z,17.46
2023-05-06T22:12:32.100Z,17.46
2023-05-06T22:14:41.065Z,17.44
2023-05-06T22:16:45.722Z,17.42
2023-05-06T22:18:48.565Z,17.41
2023-05-06T22:20:52.467Z,17.41
2023-05-06T22:22:55.118Z,17.42
2023-05-06T22:24:57.665Z,17.42
2023-05-06T22:27:00.645Z,17.36
2023-05-06T22:29:03.221Z,17.35
2023-05-06T22:31:07.197Z,17.35
2023-05-06T22:33:09.774Z,17.35
2023-05-06T22:35:12.505Z,17.33
2023-05-06T22:37:16.169Z,17.32
2023-05-06T22:39:18.805Z,17.29
2023-05-06T22:41:21.429Z,17.26
2023-05-06T22:43:24.064Z,17.26
2023-05-06T22:45:26.843Z,17.27
2023-05-06T22:47:31.087Z,17.27
2023-05-06T22:49:33.690Z,17.24
2023-05-06T22:51:36.446Z,17.22
2023-05-06T22:53:39.073Z,17.36
2023-05-06T22:55:41.735Z,17.31
2023-05-06T22:57:44.776Z,17.15
2023-05-06T22:59:47.365Z,17.13
2023-05-06T23:01:49.977Z,17.06
2023-05-06T23:03:53.980Z,17.04
2023-05-06T23:05:56.679Z,17.04
2023-05-06T23:07:59.219Z,17.02
2023-05-06T23:10:02.042Z,17.00
2023-05-06T23:12:05.044Z,17.00
2023-05-06T23:14:08.152Z,16.99
2023-05-06T23:16:10.837Z,17.00
2023-05-06T23:18:13.493Z,17.00
2023-05-06T23:20:17.583Z,17.01
2023-05-06T23:22:20.148Z,16.99
2023-05-06T23:24:22.696Z,16.99
2023-05-06T23:26:25.334Z,16.96
2023-05-06T23:28:28.527Z,16.97
2023-05-06T23:30:31.315Z,16.92
2023-05-06T23:32:37.211Z,16.88
2023-05-06T23:34:39.803Z,16.87
2023-05-06T23:36:43.773Z,16.83
2023-05-06T23:38:48.855Z,16.94
2023-05-06T23:40:51.520Z,16.81
2023-05-06T23:42:54.095Z,16.76
2023-05-06T23:44:56.660Z,16.80
2023-05-06T23:46:59.223Z,16.73
2023-05-06T23:49:01.774Z,16.67
2023-05-06T23:51:04.564Z,16.70
2023-05-06T23:53:08.503Z,16.62
2023-05-06T23:55:11.623Z,16.59
2023-05-06T23:57:14.416Z,16.59
2023-05-06T23:59:17.406Z,16.58
